createdAt,value
2023-03-06T00:01:33.374Z,1.93
2023-03-06T00:03:35.518Z,2.01
2023-03-06T00:05:37.470Z,2.03
2023-03-06T00:07:39.178Z,2.00
2023-03-06T00:09:40.693Z,1.89
2023-03-06T00:11:42.607Z,1.88
2023-03-06T00:13:44.979Z,1.98
2023-03-06T00:15:47.190Z,2.10
2023-03-06T00:17:49.018Z,2.07
2023-03-06T00:19:50.661Z,2.09
2023-03-06T00:21:52.253Z,1.93
2023-03-06T00:23:53.863Z,1.93
2023-03-06T00:25:55.457Z,2.02
2023-03-06T00:27:56.976Z,2.07
2023-03-06T00:30:00.756Z,1.81
2023-03-06T00:32:02.451Z,1.85
2023-03-06T00:34:04.585Z,1.87
2023-03-06T00:36:06.628Z,1.93
2023-03-06T00:38:11.631Z,1.99
2023-03-06T00:40:15.861Z,2.05
2023-03-06T00:42:18.422Z,2.08
2023-03-06T00:44:20.014Z,2.15
2023-03-06T00:46:21.695Z,2.12
2023-03-06T00:48:23.320Z,2.01
2023-03-06T00:50:27.521Z,1.84
2023-03-06T00:52:29.173Z,1.93
2023-03-06T00:54:30.684Z,1.82
2023-03-06T00:56:32.246Z,1.95
2023-03-06T00:58:33.818Z,1.98
2023-03-06T01:00:35.639Z,2.00
2023-03-06T01:02:37.440Z,1.96
2023-03-06T01:04:39.601Z,1.80
2023-03-06T01:06:41.246Z,1.86
2023-03-06T01:08:43.051Z,2.01
2023-03-06T01:10:45.074Z,1.84
2023-03-06T01:12:46.921Z,1.78
2023-03-06T01:14:48.504Z,1.92
2023-03-06T01:16:50.527Z,2.02
2023-03-06T01:18:52.305Z,2.10
2023-03-06T01:20:54.018Z,2.12
2023-03-06T01:22:56.500Z,2.17
2023-03-06T01:24:58.053Z,2.16
2023-03-06T01:26:59.621Z,2.08
2023-03-06T01:29:01.780Z,1.86
2023-03-06T01:31:04.104Z,1.79
2023-03-06T01:33:05.754Z,1.80
2023-03-06T01:35:07.578Z,1.81
2023-03-06T01:37:09.122Z,1.95
2023-03-06T01:39:10.729Z,1.96
2023-03-06T01:41:15.637Z,2.07
2023-03-06T01:43:31.520Z,2.06
2023-03-06T01:45:33.332Z,2.14
2023-03-06T01:47:35.308Z,2.17
2023-03-06T01:49:40.139Z,2.16
2023-03-06T01:51:53.446Z,2.06
2023-03-06T01:53:56.337Z,1.96
2023-03-06T01:55:58.242Z,1.95
2023-03-06T01:58:07.186Z,2.01
2023-03-06T02:00:09.875Z,2.07
2023-03-06T02:02:18.056Z,2.17
2023-03-06T02:04:20.446Z,2.05
2023-03-06T02:06:22.256Z,1.94
2023-03-06T02:08:24.475Z,1.98
2023-03-06T02:10:26.043Z,2.05
2023-03-06T02:12:27.967Z,2.04
2023-03-06T02:14:30.059Z,1.99
2023-03-06T02:16:32.891Z,2.12
2023-03-06T02:18:34.888Z,2.05
2023-03-06T02:20:45.272Z,1.92
2023-03-06T02:22:57.005Z,1.88
2023-03-06T02:25:07.741Z,2.01
2023-03-06T02:27:12.321Z,1.92
2023-03-06T02:29:20.196Z,1.92
2023-03-06T02:31:27.448Z,1.92
2023-03-06T02:33:29.875Z,2.05
2023-03-06T02:35:38.584Z,2.12
2023-03-06T02:37:40.253Z,2.00
2023-03-06T02:39:46.760Z,2.17
2023-03-06T02:41:48.685Z,2.29
2023-03-06T02:43:52.601Z,2.20
2023-03-06T02:45:54.197Z,2.24
2023-03-06T02:47:55.801Z,2.12
2023-03-06T02:49:57.400Z,2.24
2023-03-06T02:51:59.094Z,2.23
2023-03-06T02:54:00.728Z,2.24
2023-03-06T02:56:02.452Z,2.20
2023-03-06T02:58:04.688Z,2.20
2023-03-06T03:00:07.206Z,2.07
2023-03-06T03:02:09.514Z,2.05
2023-03-06T03:04:11.233Z,2.15
2023-03-06T03:06:13.880Z,2.09
2023-03-06T03:08:15.917Z,2.05
2023-03-06T03:10:17.827Z,2.00
2023-03-06T03:12:22.241Z,2.05
2023-03-06T03:14:24.599Z,1.99
2023-03-06T03:16:26.444Z,2.03
2023-03-06T03:18:31.954Z,2.08
2023-03-06T03:20:33.774Z,2.03
2023-03-06T03:22:35.597Z,1.80
2023-03-06T03:24:37.149Z,1.83
2023-03-06T03:26:39.246Z,1.81
2023-03-06T03:28:46.482Z,1.76
2023-03-06T03:30:51.522Z,1.76
2023-03-06T03:32:53.319Z,1.92
2023-03-06T03:34:56.066Z,2.02
2023-03-06T03:36:58.882Z,2.17
2023-03-06T03:39:00.567Z,2.21
2023-03-06T03:41:03.045Z,2.09
2023-03-06T03:43:05.083Z,2.16
2023-03-06T03:45:07.934Z,2.07
2023-03-06T03:47:09.666Z,2.05
2023-03-06T03:49:11.576Z,2.04
2023-03-06T03:51:16.491Z,1.82
2023-03-06T03:53:21.933Z,1.62
2023-03-06T03:55:23.593Z,1.70
2023-03-06T03:57:25.497Z,1.53
2023-03-06T03:59:28.656Z,1.73
2023-03-06T04:01:45.818Z,1.75
2023-03-06T04:03:47.819Z,1.70
2023-03-06T04:05:53.836Z,1.71
2023-03-06T04:07:55.335Z,1.73
2023-03-06T04:09:57.119Z,1.79
2023-03-06T04:11:59.193Z,1.76
2023-03-06T04:14:00.987Z,1.85
2023-03-06T04:16:02.920Z,1.78
2023-03-06T04:18:06.579Z,1.72
2023-03-06T04:20:09.817Z,1.54
2023-03-06T04:22:11.594Z,1.54
2023-03-06T04:24:14.926Z,1.46
2023-03-06T04:26:17.563Z,1.48
2023-03-06T04:28:20.138Z,1.46
2023-03-06T04:30:21.985Z,1.54
2023-03-06T04:32:24.300Z,1.55
2023-03-06T04:34:26.569Z,1.62
2023-03-06T04:36:33.344Z,1.72
2023-03-06T04:38:42.021Z,1.80
2023-03-06T04:40:45.145Z,1.65
2023-03-06T04:42:47.829Z,1.69
2023-03-06T04:44:49.371Z,1.70
2023-03-06T04:46:51.058Z,1.66
2023-03-06T04:48:52.645Z,1.74
2023-03-06T04:50:54.234Z,1.80
2023-03-06T04:52:55.801Z,1.83
2023-03-06T04:54:57.740Z,1.87
2023-03-06T04:56:59.373Z,1.89
2023-03-06T04:59:02.554Z,1.82
2023-03-06T05:01:04.735Z,1.85
2023-03-06T05:03:06.307Z,1.68
2023-03-06T05:05:08.866Z,1.78
2023-03-06T05:07:10.802Z,1.84
2023-03-06T05:09:12.358Z,1.82
2023-03-06T05:11:13.857Z,1.77
2023-03-06T05:13:15.454Z,1.78
2023-03-06T05:15:17.380Z,1.86
2023-03-06T05:17:18.901Z,1.79
2023-03-06T05:19:20.746Z,1.76
2023-03-06T05:21:22.769Z,1.67
2023-03-06T05:23:24.349Z,1.67
2023-03-06T05:25:26.253Z,1.71
2023-03-06T05:27:28.515Z,1.84
2023-03-06T05:29:30.198Z,1.72
2023-03-06T05:31:31.806Z,1.80
2023-03-06T05:33:35.161Z,1.76
2023-03-06T05:35:36.760Z,1.84
2023-03-06T05:37:38.236Z,1.88
2023-03-06T05:39:39.923Z,1.79
2023-03-06T05:41:41.525Z,1.85
2023-03-06T05:43:44.251Z,1.86
2023-03-06T05:45:45.847Z,1.91
2023-03-06T05:47:47.426Z,1.82
2023-03-06T05:49:49.031Z,1.78
2023-03-06T05:51:50.606Z,1.82
2023-03-06T05:53:52.315Z,1.78
2023-03-06T05:55:58.861Z,1.75
2023-03-06T05:58:00.410Z,1.60
2023-03-06T06:00:01.998Z,1.60
2023-03-06T06:02:05.412Z,1.48
2023-03-06T06:04:07.209Z,1.50
2023-03-06T06:06:11.003Z,1.52
2023-03-06T06:08:12.518Z,1.65
2023-03-06T06:10:14.273Z,1.58
2023-03-06T06:12:15.901Z,1.50
2023-03-06T06:14:17.612Z,1.41
2023-03-06T06:16:19.414Z,1.46
2023-03-06T06:18:21.349Z,1.65
2023-03-06T06:20:24.152Z,1.60
2023-03-06T06:22:25.857Z,1.58
2023-03-06T06:24:27.446Z,1.68
2023-03-06T06:26:29.022Z,1.53
2023-03-06T06:28:31.154Z,1.48
2023-03-06T06:30:33.442Z,1.44
2023-03-06T06:32:36.394Z,1.45
2023-03-06T06:34:38.043Z,1.43
2023-03-06T06:36:40.344Z,1.42
2023-03-06T06:38:41.900Z,1.52
2023-03-06T06:40:46.968Z,1.48
2023-03-06T06:43:00.158Z,1.59
2023-03-06T06:45:02.316Z,1.61
2023-03-06T06:47:23.471Z,1.67
2023-03-06T06:49:25.898Z,1.61
2023-03-06T06:51:27.430Z,1.65
2023-03-06T06:53:29.037Z,1.65
2023-03-06T06:55:30.650Z,1.61
2023-03-06T06:57:32.299Z,1.52
2023-03-06T06:59:33.908Z,1.42
2023-03-06T07:01:35.629Z,1.47
2023-03-06T07:03:37.799Z,1.49
2023-03-06T07:05:39.608Z,1.53
2023-03-06T07:07:41.462Z,1.74
2023-03-06T07:09:43.749Z,1.70
2023-03-06T07:11:45.353Z,1.66
2023-03-06T07:13:47.517Z,1.68
2023-03-06T07:15:49.115Z,1.61
2023-03-06T07:17:50.727Z,1.67
2023-03-06T07:19:52.341Z,1.65
2023-03-06T07:21:53.997Z,1.63
2023-03-06T07:23:57.353Z,1.76
2023-03-06T07:25:59.250Z,1.61
2023-03-06T07:28:01.056Z,1.28
2023-03-06T07:30:02.811Z,1.23
2023-03-06T07:32:05.078Z,1.23
2023-03-06T07:34:06.734Z,1.15
2023-03-06T07:36:12.724Z,1.19
2023-03-06T07:38:14.599Z,1.41
2023-03-06T07:40:16.505Z,1.54
2023-03-06T07:42:18.045Z,1.36
2023-03-06T07:44:30.282Z,1.46
2023-03-06T07:46:31.991Z,1.49
2023-03-06T07:48:34.512Z,1.54
2023-03-06T07:50:36.240Z,1.42
2023-03-06T07:52:37.845Z,1.40
2023-03-06T07:54:39.474Z,1.40
2023-03-06T07:56:41.163Z,1.57
2023-03-06T07:58:46.193Z,1.67
2023-03-06T08:00:47.977Z,1.71
2023-03-06T08:02:49.544Z,1.68
2023-03-06T08:04:55.275Z,1.76
2023-03-06T08:06:59.401Z,1.77
2023-03-06T08:09:01.036Z,1.80
2023-03-06T08:11:03.569Z,1.99
2023-03-06T08:13:05.151Z,1.83
2023-03-06T08:15:09.315Z,1.66
2023-03-06T08:17:10.841Z,1.63
2023-03-06T08:19:12.446Z,1.78
2023-03-06T08:21:19.750Z,1.71
2023-03-06T08:23:21.304Z,2.46
2023-03-06T08:25:24.558Z,2.32
2023-03-06T08:27:26.181Z,2.09
2023-03-06T08:29:27.718Z,2.00
2023-03-06T08:31:39.665Z,2.04
2023-03-06T08:33:41.270Z,1.99
2023-03-06T08:35:43.157Z,2.07
2023-03-06T08:37:45.146Z,1.96
2023-03-06T08:39:46.809Z,1.93
2023-03-06T08:41:48.328Z,1.95
2023-03-06T08:43:50.356Z,2.07
2023-03-06T08:45:57.175Z,1.93
2023-03-06T08:47:58.960Z,2.08
2023-03-06T08:50:00.953Z,2.13
2023-03-06T08:52:02.582Z,2.02
2023-03-06T08:54:04.361Z,2.01
2023-03-06T08:56:06.557Z,2.16
2023-03-06T08:58:08.565Z,2.13
2023-03-06T09:00:10.975Z,2.31
2023-03-06T09:02:13.170Z,2.61
2023-03-06T09:04:14.813Z,2.85
2023-03-06T09:06:17.012Z,3.02
2023-03-06T09:08:18.557Z,3.08
2023-03-06T09:10:22.499Z,3.19
2023-03-06T09:12:24.232Z,3.29
2023-03-06T09:14:25.898Z,3.26
2023-03-06T09:16:27.865Z,3.30
2023-03-06T09:18:29.507Z,3.26
2023-03-06T09:20:31.361Z,2.95
2023-03-06T09:22:33.461Z,2.88
2023-03-06T09:24:35.361Z,2.74
2023-03-06T09:26:45.525Z,2.84
2023-03-06T09:28:48.379Z,2.83
2023-03-06T09:30:50.325Z,2.99
2023-03-06T09:32:51.996Z,3.13
2023-03-06T09:34:53.667Z,3.10
2023-03-06T09:36:57.133Z,3.18
2023-03-06T09:38:59.322Z,3.21
2023-03-06T09:43:20.595Z,3.36
2023-03-06T09:45:22.724Z,3.31
2023-03-06T09:47:40.564Z,3.53
2023-03-06T09:49:52.134Z,3.58
2023-03-06T09:52:17.702Z,3.63
2023-03-06T09:54:26.575Z,3.52
2023-03-06T09:56:32.713Z,3.41
2023-03-06T09:58:40.804Z,3.22
2023-03-06T10:00:55.364Z,3.01
2023-03-06T10:03:12.697Z,2.95
2023-03-06T10:05:24.221Z,2.86
2023-03-06T10:07:42.855Z,2.89
2023-03-06T10:09:56.970Z,2.87
2023-03-06T10:12:04.770Z,3.25
2023-03-06T10:14:20.261Z,3.29
2023-03-06T10:16:30.658Z,3.52
2023-03-06T10:18:32.955Z,3.35
2023-03-06T10:20:43.997Z,3.50
2023-03-06T10:23:07.093Z,3.61
2023-03-06T10:25:43.672Z,3.81
2023-03-06T10:27:47.556Z,4.06
2023-03-06T10:30:19.734Z,4.08
2023-03-06T10:32:46.257Z,4.11
2023-03-06T10:34:50.405Z,3.96
2023-03-06T10:36:52.037Z,3.73
2023-03-06T10:38:56.226Z,3.44
2023-03-06T10:41:13.015Z,3.46
2023-03-06T10:43:14.692Z,3.09
2023-03-06T10:45:17.440Z,3.13
2023-03-06T10:47:29.992Z,2.61
2023-03-06T10:49:37.308Z,2.15
2023-03-06T10:51:39.005Z,2.05
2023-03-06T10:53:48.669Z,2.09
2023-03-06T10:55:58.839Z,2.22
2023-03-06T10:58:29.181Z,2.43
2023-03-06T11:00:37.921Z,2.44
2023-03-06T11:02:41.025Z,2.48
2023-03-06T11:04:51.013Z,2.52
2023-03-06T11:07:12.592Z,2.58
2023-03-06T11:09:25.669Z,2.88
2023-03-06T11:11:37.152Z,3.07
2023-03-06T11:13:45.150Z,3.42
2023-03-06T11:15:58.197Z,3.59
2023-03-06T11:18:07.521Z,3.89
2023-03-06T11:20:16.424Z,4.72
2023-03-06T11:22:18.953Z,4.62
2023-03-06T11:24:22.934Z,4.72
2023-03-06T11:26:34.449Z,4.82
2023-03-06T11:28:49.884Z,4.66
2023-03-06T11:31:02.409Z,4.36
2023-03-06T11:33:16.264Z,4.13
2023-03-06T11:35:51.766Z,4.16
2023-03-06T11:38:00.738Z,3.89
2023-03-06T11:40:11.076Z,3.84
2023-03-06T11:42:27.733Z,3.64
2023-03-06T11:45:25.892Z,4.01
2023-03-06T11:47:39.170Z,4.31
2023-03-06T11:49:45.751Z,4.45
2023-03-06T11:51:55.247Z,4.50
2023-03-06T11:54:00.293Z,4.54
2023-03-06T11:56:19.900Z,4.01
2023-03-06T11:58:49.558Z,4.02
2023-03-06T12:01:12.922Z,4.07
2023-03-06T12:03:31.576Z,4.14
2023-03-06T12:06:01.220Z,3.94
2023-03-06T12:08:16.774Z,3.71
2023-03-06T12:10:28.621Z,3.64
2023-03-06T12:13:01.220Z,3.89
2023-03-06T12:15:22.218Z,4.14
2023-03-06T12:17:42.852Z,4.11
2023-03-06T12:19:49.785Z,4.14
2023-03-06T12:22:09.632Z,4.69
2023-03-06T12:24:36.401Z,5.31
2023-03-06T12:26:50.519Z,6.21
2023-03-06T12:29:20.932Z,6.73
2023-03-06T12:31:51.207Z,6.28
2023-03-06T12:34:14.092Z,5.73
2023-03-06T12:36:40.749Z,5.59
2023-03-06T12:38:53.057Z,5.45
2023-03-06T12:41:11.322Z,5.35
2023-03-06T12:43:54.846Z,5.59
2023-03-06T12:46:03.473Z,6.34
2023-03-06T12:48:14.923Z,6.86
2023-03-06T12:50:23.917Z,7.04
2023-03-06T12:52:30.695Z,7.22
2023-03-06T12:54:37.395Z,7.17
2023-03-06T12:56:39.732Z,6.82
2023-03-06T12:58:51.992Z,6.49
2023-03-06T13:01:16.600Z,5.93
2023-03-06T13:03:54.392Z,5.62
2023-03-06T13:06:27.627Z,5.07
2023-03-06T13:08:54.182Z,4.70
2023-03-06T13:11:54.049Z,4.46
2023-03-06T13:13:56.500Z,4.19
2023-03-06T13:16:12.646Z,4.23
2023-03-06T13:18:23.242Z,3.84
2023-03-06T13:20:42.964Z,3.86
2023-03-06T13:22:47.186Z,3.89
2023-03-06T13:25:08.928Z,4.08
2023-03-06T13:27:12.373Z,3.94
2023-03-06T13:29:35.633Z,3.95
2023-03-06T13:31:37.449Z,4.01
2023-03-06T13:33:39.069Z,4.18
2023-03-06T13:35:40.625Z,4.11
2023-03-06T13:37:50.106Z,4.01
2023-03-06T13:39:58.407Z,4.13
2023-03-06T13:42:00.239Z,4.45
2023-03-06T13:44:24.911Z,4.26
2023-03-06T13:46:35.201Z,4.34
2023-03-06T13:48:44.678Z,4.27
2023-03-06T13:50:48.786Z,4.58
2023-03-06T13:53:09.034Z,4.46
2023-03-06T13:55:33.408Z,3.91
2023-03-06T13:57:45.014Z,3.35
2023-03-06T14:00:11.875Z,3.65
2023-03-06T14:02:39.674Z,3.44
2023-03-06T14:04:47.041Z,3.48
2023-03-06T14:07:06.632Z,3.54
2023-03-06T14:09:23.027Z,3.64
2023-03-06T14:11:25.238Z,3.57
2023-03-06T14:13:45.256Z,3.55
2023-03-06T14:15:54.145Z,3.78
2023-03-06T14:18:07.144Z,3.81
2023-03-06T14:20:17.849Z,3.93
2023-03-06T14:22:24.614Z,4.08
2023-03-06T14:24:54.025Z,4.22
2023-03-06T14:26:55.718Z,4.31
2023-03-06T14:29:02.568Z,4.35
2023-03-06T14:31:05.980Z,4.65
2023-03-06T14:33:11.471Z,4.70
2023-03-06T14:35:39.246Z,4.74
2023-03-06T14:37:40.899Z,4.79
2023-03-06T14:39:44.194Z,4.79
2023-03-06T14:41:45.829Z,4.86
2023-03-06T14:43:47.436Z,5.08
2023-03-06T14:46:03.590Z,5.62
2023-03-06T14:48:06.421Z,6.16
2023-03-06T14:50:24.583Z,6.32
2023-03-06T14:52:26.213Z,6.66
2023-03-06T14:54:34.006Z,6.77
2023-03-06T14:56:42.066Z,6.82
2023-03-06T14:58:59.175Z,6.59
2023-03-06T15:01:09.926Z,6.37
2023-03-06T15:03:17.920Z,5.52
2023-03-06T15:05:27.697Z,5.69
2023-03-06T15:07:31.649Z,5.58
2023-03-06T15:09:35.791Z,5.41
2023-03-06T15:11:57.835Z,5.20
2023-03-06T15:14:04.412Z,5.14
2023-03-06T15:16:06.174Z,5.07
2023-03-06T15:18:54.584Z,5.21
2023-03-06T15:21:20.852Z,5.01
2023-03-06T15:23:34.607Z,4.89
2023-03-06T15:25:36.313Z,5.00
2023-03-06T15:27:38.099Z,4.83
2023-03-06T15:29:39.813Z,4.71
2023-03-06T15:31:44.434Z,4.64
2023-03-06T15:34:09.065Z,4.76
2023-03-06T15:36:30.681Z,4.92
2023-03-06T15:38:32.800Z,4.96
2023-03-06T15:40:34.512Z,5.06
2023-03-06T15:42:36.595Z,4.92
2023-03-06T15:44:38.216Z,4.85
2023-03-06T15:46:39.997Z,4.93
2023-03-06T15:48:55.215Z,4.91
2023-03-06T15:50:57.113Z,4.77
2023-03-06T15:52:58.831Z,4.85
2023-03-06T15:55:00.322Z,4.99
2023-03-06T15:57:05.143Z,4.89
2023-03-06T15:59:10.670Z,4.95
2023-03-06T16:01:16.460Z,4.86
2023-03-06T16:03:18.245Z,4.54
2023-03-06T16:05:20.385Z,4.59
2023-03-06T16:07:21.911Z,4.31
2023-03-06T16:09:23.662Z,4.21
2023-03-06T16:11:41.817Z,4.30
2023-03-06T16:13:45.966Z,4.36
2023-03-06T16:15:49.064Z,4.46
2023-03-06T16:17:51.011Z,4.60
2023-03-06T16:19:52.892Z,4.59
2023-03-06T16:21:55.658Z,4.60
2023-03-06T16:23:57.105Z,4.64
2023-03-06T16:25:58.808Z,4.50
2023-03-06T16:28:00.904Z,4.41
2023-03-06T16:30:03.537Z,4.18
2023-03-06T16:32:05.686Z,3.95
2023-03-06T16:34:07.289Z,3.99
2023-03-06T16:36:13.795Z,4.08
2023-03-06T16:38:16.544Z,4.12
2023-03-06T16:40:24.118Z,4.03
2023-03-06T16:42:25.760Z,3.83
2023-03-06T16:44:27.287Z,3.86
2023-03-06T16:46:29.397Z,3.67
2023-03-06T16:48:38.362Z,3.81
2023-03-06T16:50:40.216Z,3.81
2023-03-06T16:52:41.787Z,3.73
2023-03-06T16:54:44.782Z,3.51
2023-03-06T16:56:46.547Z,3.50
2023-03-06T16:58:48.579Z,3.47
2023-03-06T17:00:50.211Z,3.51
2023-03-06T17:02:52.688Z,3.57
2023-03-06T17:04:55.472Z,3.58
2023-03-06T17:06:58.502Z,3.48
2023-03-06T17:09:00.193Z,3.10
2023-03-06T17:11:05.709Z,3.14
2023-03-06T17:13:08.518Z,3.16
2023-03-06T17:15:11.610Z,3.15
2023-03-06T17:17:13.142Z,3.19
2023-03-06T17:19:15.272Z,3.22
2023-03-06T17:21:16.937Z,3.09
2023-03-06T17:23:21.075Z,3.08
2023-03-06T17:25:23.158Z,3.03
2023-03-06T17:27:24.789Z,3.01
2023-03-06T17:29:26.281Z,3.07
2023-03-06T17:31:28.857Z,3.23
2023-03-06T17:33:30.655Z,3.08
2023-03-06T17:35:35.179Z,2.98
2023-03-06T17:37:36.936Z,2.72
2023-03-06T17:39:38.881Z,2.79
2023-03-06T17:41:40.573Z,2.80
2023-03-06T17:43:42.528Z,2.81
2023-03-06T17:45:47.287Z,2.92
2023-03-06T17:47:52.863Z,3.01
2023-03-06T17:49:54.537Z,3.10
2023-03-06T17:51:59.938Z,3.12
2023-03-06T17:54:01.616Z,3.04
2023-03-06T17:56:05.132Z,2.91
2023-03-06T17:58:07.160Z,2.83
2023-03-06T18:00:10.767Z,2.86
2023-03-06T18:02:17.633Z,2.78
2023-03-06T18:04:19.286Z,2.82
2023-03-06T18:06:22.109Z,2.85
2023-03-06T18:08:24.499Z,2.81
2023-03-06T18:10:25.995Z,2.75
2023-03-06T18:12:27.534Z,2.74
2023-03-06T18:14:29.080Z,2.79
2023-03-06T18:16:30.702Z,2.82
2023-03-06T18:18:33.213Z,2.80
2023-03-06T18:20:40.182Z,2.70
2023-03-06T18:22:41.743Z,2.80
2023-03-06T18:24:44.100Z,2.74
2023-03-06T18:26:45.861Z,2.74
2023-03-06T18:28:51.874Z,2.77
2023-03-06T18:30:53.362Z,2.70
2023-03-06T18:32:55.140Z,2.80
2023-03-06T18:34:57.014Z,2.62
2023-03-06T18:36:58.628Z,2.62
2023-03-06T18:39:03.590Z,2.71
2023-03-06T18:41:07.572Z,2.70
2023-03-06T18:43:09.096Z,2.65
2023-03-06T18:45:12.800Z,2.57
2023-03-06T18:47:15.545Z,2.63
2023-03-06T18:49:17.305Z,2.68
2023-03-06T18:51:20.101Z,2.71
2023-03-06T18:53:22.190Z,2.68
2023-03-06T18:55:23.808Z,2.68
2023-03-06T18:57:25.521Z,2.59
2023-03-06T18:59:27.224Z,2.65
2023-03-06T19:01:31.159Z,2.37
2023-03-06T19:03:32.958Z,2.59
2023-03-06T19:05:38.695Z,2.57
2023-03-06T19:07:40.278Z,2.32
2023-03-06T19:09:44.514Z,2.50
2023-03-06T19:11:46.876Z,2.51
2023-03-06T19:13:48.697Z,2.45
2023-03-06T19:15:50.300Z,2.48
2023-03-06T19:17:51.948Z,2.31
2023-03-06T19:19:54.992Z,2.31
2023-03-06T19:22:00.041Z,2.32
2023-03-06T19:24:02.646Z,2.36
2023-03-06T19:26:04.257Z,2.31
2023-03-06T19:28:06.025Z,2.14
2023-03-06T19:30:08.465Z,2.07
2023-03-06T19:32:10.128Z,2.15
2023-03-06T19:34:11.904Z,2.31
2023-03-06T19:36:14.853Z,2.21
2023-03-06T19:38:16.617Z,2.10
2023-03-06T19:40:18.379Z,2.18
2023-03-06T19:42:19.911Z,2.22
2023-03-06T19:44:23.023Z,2.30
2023-03-06T19:46:26.040Z,2.18
2023-03-06T19:48:27.744Z,2.26
2023-03-06T19:50:29.646Z,2.27
2023-03-06T19:52:31.255Z,2.36
2023-03-06T19:54:32.962Z,2.23
2023-03-06T19:56:34.558Z,2.21
2023-03-06T19:58:36.909Z,2.27
2023-03-06T20:00:38.500Z,2.32
2023-03-06T20:02:40.126Z,2.19
2023-03-06T20:04:41.983Z,2.25
2023-03-06T20:06:46.612Z,2.15
2023-03-06T20:08:48.947Z,2.23
2023-03-06T20:10:50.516Z,2.00
2023-03-06T20:12:52.507Z,1.95
2023-03-06T20:14:54.068Z,2.00
2023-03-06T20:16:55.644Z,1.93
2023-03-06T20:18:58.786Z,2.02
2023-03-06T20:21:02.111Z,1.79
2023-03-06T20:23:04.585Z,1.82
2023-03-06T20:25:06.479Z,1.63
2023-03-06T20:27:08.095Z,1.71
2023-03-06T20:29:10.293Z,1.56
2023-03-06T20:31:18.265Z,1.53
2023-03-06T20:33:22.059Z,1.41
2023-03-06T20:35:23.669Z,1.40
2023-03-06T20:37:25.163Z,1.36
2023-03-06T20:39:26.890Z,1.35
2023-03-06T20:41:30.105Z,1.36
2023-03-06T20:43:31.672Z,1.20
2023-03-06T20:45:33.743Z,1.23
2023-03-06T20:47:35.572Z,1.35
2023-03-06T20:49:37.983Z,1.32
2023-03-06T20:51:41.458Z,1.31
2023-03-06T20:53:43.401Z,1.42
2023-03-06T20:55:47.937Z,1.36
2023-03-06T20:57:51.932Z,1.29
2023-03-06T20:59:53.424Z,1.28
2023-03-06T21:01:55.100Z,1.18
2023-03-06T21:03:58.201Z,1.26
2023-03-06T21:06:00.118Z,1.37
2023-03-06T21:08:01.637Z,1.31
2023-03-06T21:10:03.482Z,1.32
2023-03-06T21:12:05.898Z,1.24
2023-03-06T21:14:07.603Z,1.00
2023-03-06T21:16:14.715Z,0.84
2023-03-06T21:18:16.434Z,0.90
2023-03-06T21:20:18.103Z,0.61
2023-03-06T21:22:19.731Z,0.70
2023-03-06T21:24:21.497Z,0.67
2023-03-06T21:26:25.780Z,0.73
2023-03-06T21:28:27.410Z,0.81
2023-03-06T21:30:29.794Z,1.07
2023-03-06T21:32:31.974Z,1.03
2023-03-06T21:34:33.701Z,1.00
2023-03-06T21:36:35.330Z,0.84
2023-03-06T21:38:37.680Z,0.87
2023-03-06T21:40:39.616Z,0.82
2023-03-06T21:42:41.442Z,0.88
2023-03-06T21:44:43.116Z,0.78
2023-03-06T21:46:45.640Z,0.81
2023-03-06T21:48:47.217Z,0.97
2023-03-06T21:50:48.876Z,1.02
2023-03-06T21:52:51.211Z,0.87
2023-03-06T21:54:52.848Z,0.83
2023-03-06T21:56:54.697Z,0.90
2023-03-06T21:58:57.942Z,0.86
2023-03-06T22:01:00.211Z,0.98
2023-03-06T22:03:04.706Z,0.69
2023-03-06T22:05:06.584Z,0.57
2023-03-06T22:07:08.276Z,0.55
2023-03-06T22:09:10.064Z,0.63
2023-03-06T22:11:14.794Z,0.72
2023-03-06T22:13:16.405Z,0.80
2023-03-06T22:15:18.077Z,0.76
2023-03-06T22:17:19.872Z,0.83
2023-03-06T22:19:21.404Z,0.84
2023-03-06T22:21:23.804Z,0.96
2023-03-06T22:23:25.712Z,0.98
2023-03-06T22:25:27.262Z,1.03
2023-03-06T22:27:29.723Z,0.87
2023-03-06T22:29:31.206Z,1.06
2023-03-06T22:31:32.939Z,1.05
2023-03-06T22:33:34.991Z,0.97
2023-03-06T22:35:36.726Z,1.00
2023-03-06T22:37:38.423Z,0.87
2023-03-06T22:39:40.145Z,0.99
2023-03-06T22:41:41.665Z,0.75
2023-03-06T22:43:43.994Z,0.81
2023-03-06T22:45:45.824Z,0.76
2023-03-06T22:47:47.394Z,0.68
2023-03-06T22:49:49.017Z,0.79
2023-03-06T22:51:50.592Z,0.82
2023-03-06T22:53:52.417Z,0.98
2023-03-06T22:55:57.829Z,1.00
2023-03-06T22:57:59.323Z,1.08
2023-03-06T23:00:01.065Z,1.02
2023-03-06T23:02:03.664Z,1.00
2023-03-06T23:04:10.845Z,1.03
2023-03-06T23:06:18.333Z,0.90
2023-03-06T23:08:19.881Z,0.82
2023-03-06T23:10:21.419Z,0.93
2023-03-06T23:12:41.636Z,0.84
2023-03-06T23:15:02.019Z,0.95
2023-03-06T23:17:22.316Z,0.96
2023-03-06T23:19:42.450Z,0.84
2023-03-06T23:22:02.543Z,0.99
2023-03-06T23:24:22.828Z,0.95
2023-03-06T23:26:26.335Z,0.94
2023-03-06T23:28:28.782Z,0.94
2023-03-06T23:30:30.353Z,0.85
2023-03-06T23:32:33.535Z,0.81
2023-03-06T23:34:35.340Z,0.95
2023-03-06T23:36:36.990Z,0.86
2023-03-06T23:38:39.238Z,0.94
2023-03-06T23:40:40.999Z,0.91
2023-03-06T23:42:42.495Z,0.88
2023-03-06T23:44:44.597Z,0.99
2023-03-06T23:46:46.354Z,0.89
2023-03-06T23:48:47.864Z,0.83
2023-03-06T23:50:49.839Z,1.05
2023-03-06T23:52:55.283Z,1.03
2023-03-06T23:54:56.761Z,0.96
2023-03-06T23:56:58.333Z,0.89
2023-03-06T23:59:00.036Z,1.03
